createdAt,value
2023-03-06T00:00:25.829Z,18.33
2023-03-06T00:02:52.871Z,22.48
2023-03-06T00:05:20.213Z,13.07
2023-03-06T00:07:47.302Z,21.63
2023-03-06T00:10:23.313Z,22.73
2023-03-06T00:12:54.303Z,20.25
2023-03-06T00:15:21.647Z,17.23
2023-03-06T00:17:48.477Z,18.50
2023-03-06T00:20:16.538Z,17.55
2023-03-06T00:22:43.704Z,21.38
2023-03-06T00:25:16.766Z,15.70
2023-03-06T00:27:43.613Z,23.20
2023-03-06T00:30:17.116Z,16.30
2023-03-06T00:32:44.344Z,16.65
2023-03-06T00:35:12.276Z,27.23
2023-03-06T00:37:39.382Z,20.40
2023-03-06T00:40:12.041Z,19.25
2023-03-06T00:42:38.926Z,16.63
2023-03-06T00:45:06.400Z,18.77
2023-03-06T00:47:33.089Z,20.27
2023-03-06T00:49:59.739Z,24.25
2023-03-06T00:52:26.519Z,15.80
2023-03-06T00:54:53.188Z,19.02
2023-03-06T00:57:19.874Z,17.63
2023-03-06T00:59:46.530Z,17.92
2023-03-06T01:02:13.355Z,21.23
2023-03-06T01:04:40.092Z,20.55
2023-03-06T01:07:06.752Z,22.70
2023-03-06T01:09:33.398Z,24.35
2023-03-06T01:12:00.356Z,18.80
2023-03-06T01:14:27.821Z,19.23
2023-03-06T01:16:54.615Z,20.92
2023-03-06T01:19:21.423Z,17.13
2023-03-06T01:21:48.230Z,24.50
2023-03-06T01:24:14.915Z,22.13
2023-03-06T01:26:41.601Z,22.52
2023-03-06T01:29:08.279Z,18.75
2023-03-06T01:31:35.047Z,21.05
2023-03-06T01:34:02.029Z,26.15
2023-03-06T01:36:28.735Z,25.52
2023-03-06T01:38:55.452Z,22.63
2023-03-06T01:41:22.216Z,20.52
2023-03-06T01:43:49.788Z,19.98
2023-03-06T01:46:28.878Z,21.27
2023-03-06T01:49:04.313Z,21.42
2023-03-06T01:51:37.619Z,27.20
2023-03-06T01:54:10.633Z,18.70
2023-03-06T01:56:38.963Z,25.02
2023-03-06T01:59:07.202Z,20.17
2023-03-06T02:01:33.999Z,22.10
2023-03-06T02:04:01.679Z,19.73
2023-03-06T02:06:28.524Z,24.02
2023-03-06T02:08:56.489Z,20.15
2023-03-06T02:11:24.986Z,17.65
2023-03-06T02:13:53.814Z,20.05
2023-03-06T02:16:25.103Z,22.55
2023-03-06T02:18:52.873Z,23.50
2023-03-06T02:21:30.677Z,22.00
2023-03-06T02:24:36.675Z,24.38
2023-03-06T02:27:05.391Z,24.38
2023-03-06T02:29:32.185Z,25.10
2023-03-06T02:31:58.863Z,25.17
2023-03-06T02:34:25.460Z,22.08
2023-03-06T02:37:05.955Z,18.80
2023-03-06T02:39:38.470Z,19.58
2023-03-06T02:42:05.291Z,22.77
2023-03-06T02:44:34.591Z,24.63
2023-03-06T02:47:01.283Z,19.33
2023-03-06T02:49:28.056Z,22.80
2023-03-06T02:51:54.746Z,26.15
2023-03-06T02:54:21.531Z,19.27
2023-03-06T02:56:48.231Z,29.98
2023-03-06T02:59:14.888Z,23.00
2023-03-06T03:01:41.565Z,18.40
2023-03-06T03:04:08.583Z,18.60
2023-03-06T03:06:35.288Z,21.42
2023-03-06T03:09:01.958Z,22.02
2023-03-06T03:11:28.596Z,25.48
2023-03-06T03:13:55.289Z,19.60
2023-03-06T03:16:21.964Z,19.40
2023-03-06T03:18:50.273Z,25.00
2023-03-06T03:21:17.875Z,20.42
2023-03-06T03:23:44.580Z,22.38
2023-03-06T03:26:14.078Z,21.52
2023-03-06T03:28:41.022Z,21.67
2023-03-06T03:31:09.861Z,26.25
2023-03-06T03:33:37.178Z,14.77
2023-03-06T03:36:05.420Z,15.98
2023-03-06T03:38:33.228Z,18.92
2023-03-06T03:41:04.123Z,23.05
2023-03-06T03:45:57.798Z,20.13
2023-03-06T03:48:24.437Z,22.88
2023-03-06T03:50:51.211Z,25.17
2023-03-06T03:53:17.965Z,22.45
2023-03-06T03:55:47.217Z,21.35
2023-03-06T03:58:13.850Z,20.42
2023-03-06T04:00:40.626Z,19.90
2023-03-06T04:03:07.255Z,20.70
2023-03-06T04:05:33.975Z,18.27
2023-03-06T04:08:03.061Z,28.10
2023-03-06T04:10:29.763Z,23.42
2023-03-06T04:12:56.590Z,28.55
2023-03-06T04:15:23.404Z,27.20
2023-03-06T04:17:50.109Z,29.42
2023-03-06T04:20:16.969Z,24.63
2023-03-06T04:22:43.705Z,30.10
2023-03-06T04:25:10.774Z,33.30
2023-03-06T04:27:37.477Z,34.58
2023-03-06T04:30:05.769Z,23.45
2023-03-06T04:32:33.175Z,24.88
2023-03-06T04:34:59.909Z,24.98
2023-03-06T04:37:27.233Z,32.50
2023-03-06T04:39:54.513Z,15.70
2023-03-06T04:42:21.211Z,23.60
2023-03-06T04:44:48.198Z,18.90
2023-03-06T04:47:14.837Z,12.35
2023-03-06T04:49:41.529Z,35.58
2023-03-06T04:52:08.319Z,22.33
2023-03-06T04:54:35.037Z,26.92
2023-03-06T04:57:01.742Z,34.67
2023-03-06T04:59:28.426Z,21.77
2023-03-06T05:01:55.471Z,21.98
2023-03-06T05:04:22.170Z,22.75
2023-03-06T05:06:49.326Z,20.23
2023-03-06T05:09:16.113Z,16.08
2023-03-06T05:11:42.877Z,20.73
2023-03-06T05:14:09.542Z,16.95
2023-03-06T05:16:36.363Z,22.77
2023-03-06T05:19:03.292Z,17.95
2023-03-06T05:21:29.990Z,15.07
2023-03-06T05:23:56.842Z,20.60
2023-03-06T05:26:23.579Z,15.30
2023-03-06T05:28:50.266Z,23.00
2023-03-06T05:31:17.138Z,15.75
2023-03-06T05:33:44.624Z,16.95
2023-03-06T05:36:11.735Z,16.35
2023-03-06T05:38:38.409Z,19.33
2023-03-06T05:41:05.432Z,15.48
2023-03-06T05:43:32.151Z,19.33
2023-03-06T05:46:03.958Z,17.65
2023-03-06T05:48:30.833Z,22.38
2023-03-06T05:50:58.575Z,18.15
2023-03-06T05:53:26.768Z,22.25
2023-03-06T05:56:02.329Z,19.42
2023-03-06T05:58:29.815Z,12.18
2023-03-06T06:00:57.029Z,18.58
2023-03-06T06:03:24.816Z,12.93
2023-03-06T06:05:52.499Z,17.85
2023-03-06T06:08:19.211Z,18.25
2023-03-06T06:10:45.845Z,19.30
2023-03-06T06:13:12.550Z,20.40
2023-03-06T06:15:39.347Z,17.08
2023-03-06T06:18:06.061Z,18.70
2023-03-06T06:20:32.891Z,14.85
2023-03-06T06:22:59.614Z,18.88
2023-03-06T06:25:29.603Z,19.35
2023-03-06T06:27:56.917Z,15.33
2023-03-06T06:30:26.604Z,15.77
2023-03-06T06:32:54.773Z,14.15
2023-03-06T06:35:21.721Z,12.32
2023-03-06T06:37:49.066Z,13.25
2023-03-06T06:40:15.924Z,14.55
2023-03-06T06:42:42.847Z,18.52
2023-03-06T06:45:11.480Z,12.48
2023-03-06T06:47:41.619Z,14.02
2023-03-06T06:50:13.990Z,17.35
2023-03-06T06:52:40.940Z,11.07
2023-03-06T06:55:08.305Z,13.02
2023-03-06T06:57:34.962Z,17.25
2023-03-06T07:00:04.156Z,17.52
2023-03-06T07:02:32.162Z,20.70
2023-03-06T07:05:06.110Z,14.05
2023-03-06T07:07:38.023Z,14.32
2023-03-06T07:10:08.231Z,12.75
2023-03-06T07:12:36.953Z,14.88
2023-03-06T07:15:06.042Z,21.02
2023-03-06T07:17:32.732Z,13.32
2023-03-06T07:19:59.981Z,11.63
2023-03-06T07:22:30.343Z,14.38
2023-03-06T07:24:58.775Z,14.05
2023-03-06T07:27:26.235Z,15.93
2023-03-06T07:29:53.075Z,16.65
2023-03-06T07:32:20.763Z,16.13
2023-03-06T07:34:47.890Z,14.15
2023-03-06T07:37:14.867Z,18.48
2023-03-06T07:39:43.744Z,17.38
2023-03-06T07:42:15.643Z,22.90
2023-03-06T07:44:42.512Z,16.80
2023-03-06T07:47:11.956Z,16.00
2023-03-06T07:49:38.611Z,18.95
2023-03-06T07:52:05.416Z,18.08
2023-03-06T07:54:32.662Z,14.07
2023-03-06T07:56:59.350Z,14.95
2023-03-06T07:59:26.511Z,20.42
2023-03-06T08:01:55.425Z,20.02
2023-03-06T08:04:22.285Z,14.18
2023-03-06T08:06:49.001Z,16.10
2023-03-06T08:09:15.710Z,18.23
2023-03-06T08:11:42.387Z,15.30
2023-03-06T08:14:09.143Z,12.50
2023-03-06T08:16:35.937Z,15.85
2023-03-06T08:19:02.735Z,14.27
2023-03-06T08:21:29.449Z,16.73
2023-03-06T08:23:56.675Z,18.77
2023-03-06T08:26:27.084Z,16.77
2023-03-06T08:28:56.325Z,20.95
2023-03-06T08:31:30.528Z,14.77
2023-03-06T08:33:59.036Z,26.88
2023-03-06T08:36:26.255Z,21.25
2023-03-06T08:38:53.284Z,18.95
2023-03-06T08:41:20.987Z,15.35
2023-03-06T08:43:48.948Z,17.42
2023-03-06T08:46:16.262Z,25.58
2023-03-06T08:48:43.112Z,19.63
2023-03-06T08:51:10.200Z,23.80
2023-03-06T08:53:43.612Z,17.65
2023-03-06T08:56:21.367Z,19.33
2023-03-06T08:58:48.326Z,20.90
2023-03-06T09:01:29.347Z,19.40
2023-03-06T09:03:58.606Z,20.63
2023-03-06T09:06:27.280Z,21.88
2023-03-06T09:08:57.274Z,27.67
2023-03-06T09:11:26.010Z,20.10
2023-03-06T09:13:53.960Z,22.85
2023-03-06T09:16:21.010Z,17.98
2023-03-06T09:18:52.765Z,23.88
2023-03-06T09:21:20.746Z,19.10
2023-03-06T09:23:47.651Z,16.67
2023-03-06T09:26:14.407Z,20.48
2023-03-06T09:28:41.510Z,20.67
2023-03-06T09:31:15.942Z,22.30
2023-03-06T09:33:42.978Z,19.63
2023-03-06T09:36:19.036Z,22.92
2023-03-06T09:38:48.662Z,24.05
2023-03-06T09:41:41.019Z,28.90
2023-03-06T09:44:44.401Z,24.55
2023-03-06T09:47:48.323Z,19.80
2023-03-06T09:50:14.997Z,18.30
2023-03-06T09:53:29.099Z,19.77
2023-03-06T09:56:21.162Z,21.85
2023-03-06T09:58:56.054Z,25.08
2023-03-06T10:01:33.092Z,27.17
2023-03-06T10:04:12.830Z,27.75
2023-03-06T10:06:49.034Z,21.27
2023-03-06T10:09:21.763Z,16.15
2023-03-06T10:12:00.934Z,19.88
2023-03-06T10:14:36.842Z,21.08
2023-03-06T10:17:06.300Z,23.67
2023-03-06T10:19:35.901Z,22.73
2023-03-06T10:22:12.009Z,21.80
2023-03-06T10:24:47.582Z,20.05
2023-03-06T10:27:42.814Z,20.77
2023-03-06T10:30:26.485Z,21.52
2023-03-06T10:33:07.475Z,22.38
2023-03-06T10:38:38.915Z,15.07
2023-03-06T10:41:11.378Z,15.57
2023-03-06T10:44:03.220Z,18.48
2023-03-06T10:46:33.255Z,15.43
2023-03-06T10:49:02.294Z,23.97
2023-03-06T10:51:32.073Z,18.50
2023-03-06T10:54:01.508Z,13.88
2023-03-06T10:56:29.318Z,15.65
2023-03-06T10:59:13.697Z,17.15
2023-03-06T11:01:45.918Z,16.15
2023-03-06T11:04:22.118Z,20.40
2023-03-06T11:07:03.912Z,13.70
2023-03-06T11:09:30.713Z,23.50
2023-03-06T11:12:23.001Z,12.38
2023-03-06T11:15:14.847Z,22.10
2023-03-06T11:18:19.286Z,12.68
2023-03-06T11:20:52.483Z,16.58
2023-03-06T11:23:51.592Z,15.88
2023-03-06T11:26:20.057Z,15.18
2023-03-06T11:29:11.823Z,17.63
2023-03-06T11:31:55.179Z,13.48
2023-03-06T11:35:03.673Z,15.30
2023-03-06T11:37:58.431Z,18.30
2023-03-06T11:40:37.133Z,16.75
2023-03-06T11:43:37.233Z,21.50
2023-03-06T11:46:29.108Z,16.70
2023-03-06T11:49:12.274Z,19.77
2023-03-06T11:51:47.222Z,11.15
2023-03-06T11:54:14.495Z,20.08
2023-03-06T11:56:50.563Z,18.17
2023-03-06T11:59:45.072Z,14.00
2023-03-06T12:02:30.722Z,18.80
2023-03-06T12:05:00.518Z,14.40
2023-03-06T12:07:34.994Z,20.05
2023-03-06T12:10:23.783Z,18.88
2023-03-06T12:13:25.988Z,21.02
2023-03-06T12:16:01.503Z,17.90
2023-03-06T12:18:51.110Z,16.65
2023-03-06T12:21:44.563Z,11.48
2023-03-06T12:24:19.821Z,12.70
2023-03-06T12:27:07.668Z,16.73
2023-03-06T12:29:37.126Z,18.15
2023-03-06T12:32:36.592Z,10.75
2023-03-06T12:35:20.516Z,28.80
2023-03-06T12:37:49.928Z,14.35
2023-03-06T12:40:51.380Z,13.77
2023-03-06T12:43:56.362Z,19.08
2023-03-06T12:46:26.261Z,14.40
2023-03-06T12:49:31.890Z,13.17
2023-03-06T12:52:00.548Z,16.00
2023-03-06T12:54:33.231Z,17.48
2023-03-06T12:57:01.216Z,11.57
2023-03-06T12:59:49.959Z,10.50
2023-03-06T13:02:45.533Z,11.10
2023-03-06T13:05:31.133Z,12.23
2023-03-06T13:08:26.923Z,16.30
2023-03-06T13:11:37.792Z,12.93
2023-03-06T13:14:26.265Z,10.05
2023-03-06T13:16:53.843Z,13.15
2023-03-06T13:19:22.435Z,9.70
2023-03-06T13:21:54.869Z,12.45
2023-03-06T13:24:32.548Z,11.48
2023-03-06T13:27:14.823Z,14.35
2023-03-06T13:29:49.467Z,10.85
2023-03-06T13:32:23.900Z,11.20
2023-03-06T13:34:51.927Z,12.45
2023-03-06T13:37:20.785Z,11.77
2023-03-06T13:39:59.318Z,12.52
2023-03-06T13:43:04.876Z,10.95
2023-03-06T13:45:44.785Z,11.10
2023-03-06T13:48:42.990Z,9.75
2023-03-06T13:51:26.338Z,12.68
2023-03-06T13:54:05.561Z,16.63
2023-03-06T13:56:50.932Z,11.35
2023-03-06T14:00:08.614Z,12.05
2023-03-06T14:03:03.922Z,11.43
2023-03-06T14:06:22.972Z,10.55
2023-03-06T14:08:49.959Z,8.60
2023-03-06T14:11:21.308Z,9.05
2023-03-06T14:13:52.089Z,10.43
2023-03-06T14:19:17.782Z,10.23
2023-03-06T14:21:44.388Z,7.72
2023-03-06T14:24:19.800Z,7.45
2023-03-06T14:26:51.635Z,7.15
2023-03-06T14:29:27.202Z,15.60
2023-03-06T14:31:56.200Z,9.70
2023-03-06T14:34:28.930Z,9.77
2023-03-06T14:37:01.406Z,12.15
2023-03-06T14:39:43.836Z,15.82
2023-03-06T14:42:25.043Z,9.15
2023-03-06T14:45:07.427Z,8.75
2023-03-06T14:47:36.261Z,6.63
2023-03-06T14:50:30.151Z,7.45
2023-03-06T14:53:18.032Z,10.88
2023-03-06T14:56:13.932Z,9.07
2023-03-06T14:59:07.335Z,9.10
2023-03-06T15:01:41.960Z,7.47
2023-03-06T15:04:14.415Z,7.13
2023-03-06T15:06:43.271Z,8.82
2023-03-06T15:09:32.309Z,7.03
2023-03-06T15:12:10.536Z,7.22
2023-03-06T15:14:42.073Z,9.00
2023-03-06T15:17:46.017Z,8.23
2023-03-06T15:20:47.174Z,11.23
2023-03-06T15:23:17.279Z,9.57
2023-03-06T15:26:01.203Z,7.10
2023-03-06T15:28:37.130Z,7.97
2023-03-06T15:31:25.797Z,4.18
2023-03-06T15:34:08.887Z,9.10
2023-03-06T15:36:50.103Z,5.95
2023-03-06T15:39:43.418Z,6.35
2023-03-06T15:42:22.328Z,7.20
2023-03-06T15:44:57.917Z,7.03
2023-03-06T15:47:24.767Z,7.82
2023-03-06T15:49:54.947Z,10.68
2023-03-06T15:52:22.742Z,10.02
2023-03-06T15:54:49.758Z,9.15
2023-03-06T15:57:23.715Z,6.90
2023-03-06T15:59:51.301Z,5.38
2023-03-06T16:02:20.697Z,7.35
2023-03-06T16:04:48.046Z,7.38
2023-03-06T16:07:15.854Z,6.47
2023-03-06T16:09:43.329Z,8.40
2023-03-06T16:12:18.693Z,12.50
2023-03-06T16:14:49.799Z,12.77
2023-03-06T16:17:17.386Z,10.20
2023-03-06T16:19:44.460Z,7.22
2023-03-06T16:22:13.161Z,7.70
2023-03-06T16:24:39.837Z,8.63
2023-03-06T16:27:06.956Z,6.80
2023-03-06T16:29:36.189Z,12.73
2023-03-06T16:32:04.401Z,6.55
2023-03-06T16:34:31.324Z,8.75
2023-03-06T16:36:58.008Z,8.02
2023-03-06T16:39:25.163Z,6.18
2023-03-06T16:41:52.325Z,5.93
2023-03-06T16:44:24.278Z,9.60
2023-03-06T16:46:51.167Z,7.32
2023-03-06T16:49:21.067Z,6.70
2023-03-06T16:51:48.414Z,12.27
2023-03-06T16:54:17.450Z,13.52
2023-03-06T16:56:45.816Z,7.60
2023-03-06T16:59:12.982Z,7.70
2023-03-06T17:01:43.059Z,9.02
2023-03-06T17:04:10.246Z,10.35
2023-03-06T17:06:37.910Z,14.40
2023-03-06T17:09:04.803Z,13.07
2023-03-06T17:11:31.673Z,9.13
2023-03-06T17:13:58.475Z,8.25
2023-03-06T17:16:25.143Z,7.43
2023-03-06T17:18:53.680Z,9.88
2023-03-06T17:21:20.445Z,10.02
2023-03-06T17:23:47.241Z,11.80
2023-03-06T17:26:18.144Z,10.43
2023-03-06T17:31:23.773Z,8.25
2023-03-06T17:33:51.551Z,11.25
2023-03-06T17:36:19.470Z,11.23
2023-03-06T17:38:46.430Z,7.88
2023-03-06T17:41:13.479Z,7.80
2023-03-06T17:43:42.873Z,10.32
2023-03-06T17:46:12.682Z,7.30
2023-03-06T17:48:40.105Z,6.10
2023-03-06T17:51:07.657Z,7.93
2023-03-06T17:53:34.750Z,6.40
2023-03-06T17:56:04.652Z,9.40
2023-03-06T17:58:31.503Z,8.53
2023-03-06T18:00:58.396Z,11.70
2023-03-06T18:03:25.146Z,9.77
2023-03-06T18:06:03.355Z,10.65
2023-03-06T18:08:30.464Z,11.30
2023-03-06T18:11:01.256Z,11.85
2023-03-06T18:15:54.666Z,15.73
2023-03-06T18:18:21.381Z,12.38
2023-03-06T18:20:48.161Z,10.75
2023-03-06T18:23:15.542Z,16.42
2023-03-06T18:25:43.110Z,19.23
2023-03-06T18:28:09.882Z,13.75
2023-03-06T18:30:41.359Z,19.75
2023-03-06T18:33:09.388Z,18.92
2023-03-06T18:35:39.040Z,14.35
2023-03-06T18:38:05.726Z,17.88
2023-03-06T18:40:32.427Z,17.95
2023-03-06T18:42:59.280Z,15.75
2023-03-06T18:45:26.066Z,15.70
2023-03-06T18:47:52.710Z,12.73
2023-03-06T18:50:19.468Z,12.98
2023-03-06T18:52:46.218Z,16.35
2023-03-06T18:55:13.301Z,22.45
2023-03-06T18:57:40.159Z,14.85
2023-03-06T19:00:07.779Z,19.20
2023-03-06T19:02:34.515Z,24.67
2023-03-06T19:05:01.168Z,16.85
2023-03-06T19:07:27.860Z,18.38
2023-03-06T19:09:54.569Z,15.63
2023-03-06T19:12:21.358Z,14.23
2023-03-06T19:14:48.067Z,15.93
2023-03-06T19:17:14.711Z,14.48
2023-03-06T19:19:41.586Z,14.13
2023-03-06T19:22:08.255Z,24.27
2023-03-06T19:24:36.852Z,29.92
2023-03-06T19:27:03.788Z,24.67
2023-03-06T19:29:32.490Z,24.42
2023-03-06T19:31:59.367Z,24.23
2023-03-06T19:34:26.223Z,22.63
2023-03-06T19:36:53.056Z,19.13
2023-03-06T19:39:19.737Z,27.77
2023-03-06T19:41:48.021Z,23.08
2023-03-06T19:44:16.228Z,22.20
2023-03-06T19:46:44.451Z,27.40
2023-03-06T19:49:16.853Z,19.98
2023-03-06T19:51:44.278Z,22.38
2023-03-06T19:54:12.281Z,27.63
2023-03-06T19:56:39.144Z,17.67
2023-03-06T19:59:05.832Z,21.42
2023-03-06T20:01:34.170Z,15.68
2023-03-06T20:04:01.800Z,15.60
2023-03-06T20:06:33.359Z,17.25
2023-03-06T20:09:04.110Z,14.95
2023-03-06T20:11:33.750Z,13.60
2023-03-06T20:14:03.242Z,15.35
2023-03-06T20:16:30.672Z,14.38
2023-03-06T20:19:02.347Z,13.90
2023-03-06T20:21:32.545Z,12.35
2023-03-06T20:23:59.339Z,11.18
2023-03-06T20:26:27.478Z,11.98
2023-03-06T20:28:54.794Z,11.15
2023-03-06T20:31:23.658Z,10.27
2023-03-06T20:33:51.980Z,10.18
2023-03-06T20:36:28.849Z,14.38
2023-03-06T20:38:56.515Z,9.88
2023-03-06T20:41:25.553Z,17.50
2023-03-06T20:43:53.898Z,15.20
2023-03-06T20:46:22.424Z,12.65
2023-03-06T20:48:51.170Z,9.27
2023-03-06T20:51:27.917Z,11.02
2023-03-06T20:53:55.728Z,9.38
2023-03-06T20:56:25.527Z,7.60
2023-03-06T20:58:52.970Z,7.25
2023-03-06T21:01:24.499Z,13.68
2023-03-06T21:03:52.060Z,12.30
2023-03-06T21:06:19.223Z,13.90
2023-03-06T21:08:46.639Z,10.32
2023-03-06T21:11:13.364Z,14.00
2023-03-06T21:13:40.214Z,10.70
2023-03-06T21:16:10.131Z,10.40
2023-03-06T21:18:36.853Z,8.45
2023-03-06T21:21:08.887Z,7.20
2023-03-06T21:23:35.582Z,10.93
2023-03-06T21:26:02.353Z,6.75
2023-03-06T21:28:29.442Z,7.95
2023-03-06T21:30:56.337Z,11.38
2023-03-06T21:33:23.084Z,10.70
2023-03-06T21:35:49.743Z,13.18
2023-03-06T21:38:16.555Z,11.77
2023-03-06T21:40:44.581Z,8.68
2023-03-06T21:43:12.165Z,10.48
2023-03-06T21:45:44.262Z,11.57
2023-03-06T21:48:11.101Z,13.15
2023-03-06T21:50:37.867Z,9.70
2023-03-06T21:53:04.578Z,11.50
2023-03-06T21:55:31.423Z,9.57
2023-03-06T21:57:58.207Z,8.82
2023-03-06T22:00:25.788Z,8.77
2023-03-06T22:02:52.923Z,9.48
2023-03-06T22:05:19.622Z,9.73
2023-03-06T22:07:46.274Z,8.05
2023-03-06T22:10:14.247Z,8.20
2023-03-06T22:12:41.452Z,6.18
2023-03-06T22:15:09.438Z,8.32
2023-03-06T22:17:36.163Z,7.68
2023-03-06T22:20:04.280Z,6.43
2023-03-06T22:22:31.279Z,9.27
2023-03-06T22:24:58.284Z,7.28
2023-03-06T22:27:25.063Z,9.18
2023-03-06T22:29:53.166Z,11.65
2023-03-06T22:32:20.151Z,9.25
2023-03-06T22:34:46.999Z,7.53
2023-03-06T22:37:13.644Z,11.25
2023-03-06T22:39:40.461Z,7.30
2023-03-06T22:42:07.199Z,6.03
2023-03-06T22:44:33.844Z,7.47
2023-03-06T22:47:00.521Z,10.07
2023-03-06T22:49:27.400Z,10.27
2023-03-06T22:51:54.074Z,8.70
2023-03-06T22:54:20.731Z,8.52
2023-03-06T22:56:47.407Z,8.65
2023-03-06T22:59:14.132Z,7.07
2023-03-06T23:01:41.723Z,8.25
2023-03-06T23:04:11.241Z,7.75
2023-03-06T23:06:40.516Z,8.73
2023-03-06T23:09:21.917Z,10.75
2023-03-06T23:11:50.015Z,10.40
2023-03-06T23:14:17.760Z,8.80
2023-03-06T23:16:45.093Z,7.40
2023-03-06T23:19:12.363Z,9.43
2023-03-06T23:21:39.101Z,9.48
2023-03-06T23:24:06.885Z,9.98
2023-03-06T23:26:34.287Z,9.05
2023-03-06T23:29:01.724Z,7.60
2023-03-06T23:31:29.845Z,10.50
2023-03-06T23:34:01.986Z,11.27
2023-03-06T23:36:29.863Z,8.57
2023-03-06T23:38:57.031Z,11.10
2023-03-06T23:41:24.083Z,8.68
2023-03-06T23:43:52.891Z,8.30
2023-03-06T23:46:20.919Z,11.03
2023-03-06T23:48:47.676Z,11.15
2023-03-06T23:51:23.496Z,9.02
2023-03-06T23:53:56.037Z,8.10
2023-03-06T23:56:23.350Z,9.98
2023-03-06T23:58:50.119Z,11.02
